sensor_id;sensor_type;location;lat;lon;timestamp;temperature;humidity
39677;DHT22;27789;50.840;4.386;2023-12-20T00:01:16;7.70;99.90
39677;DHT22;27789;50.840;4.386;2023-12-20T00:03:41;7.70;99.90
39677;DHT22;27789;50.840;4.386;2023-12-20T00:06:07;7.70;99.90
39677;DHT22;27789;50.840;4.386;2023-12-20T00:08:32;7.70;99.90
39677;DHT22;27789;50.840;4.386;2023-12-20T00:10:58;7.70;99.90
39677;DHT22;27789;50.840;4.386;2023-12-20T00:13:23;7.80;99.90
39677;DHT22;27789;50.840;4.386;2023-12-20T00:15:48;7.80;99.90
39677;DHT22;27789;50.840;4.386;2023-12-20T00:18:14;7.90;99.90
39677;DHT22;27789;50.840;4.386;2023-12-20T00:20:39;7.80;99.90
39677;DHT22;27789;50.840;4.386;2023-12-20T00:23:05;7.80;99.90
39677;DHT22;27789;50.840;4.386;2023-12-20T00:25:30;7.80;99.90
39677;DHT22;27789;50.840;4.386;2023-12-20T00:27:56;7.70;99.90
39677;DHT22;27789;50.840;4.386;2023-12-20T00:30:21;7.70;99.90
39677;DHT22;27789;50.840;4.386;2023-12-20T00:32:47;7.60;99.90
39677;DHT22;27789;50.840;4.386;2023-12-20T00:35:13;7.60;99.90
39677;DHT22;27789;50.840;4.386;2023-12-20T00:37:38;7.50;99.90
39677;DHT22;27789;50.840;4.386;2023-12-20T00:40:04;10.30;99.90
39677;DHT22;27789;50.840;4.386;2023-12-20T00:42:29;7.50;99.90
39677;DHT22;27789;50.840;4.386;2023-12-20T00:44:55;7.40;99.90
39677;DHT22;27789;50.840;4.386;2023-12-20T00:47:21;7.40;99.90
39677;DHT22;27789;50.840;4.386;2023-12-20T00:49:47;7.40;99.90
39677;DHT22;27789;50.840;4.386;2023-12-20T00:52:12;7.30;99.90
39677;DHT22;27789;50.840;4.386;2023-12-20T00:54:38;7.30;99.90
39677;DHT22;27789;50.840;4.386;2023-12-20T00:57:03;7.30;99.90
39677;DHT22;27789;50.840;4.386;2023-12-20T00:59:29;7.30;99.90
39677;DHT22;27789;50.840;4.386;2023-12-20T01:01:54;7.20;99.90
39677;DHT22;27789;50.840;4.386;2023-12-20T01:04:19;7.20;99.90
39677;DHT22;27789;50.840;4.386;2023-12-20T01:06:45;7.20;99.90
39677;DHT22;27789;50.840;4.386;2023-12-20T01:09:10;7.20;99.90
39677;DHT22;27789;50.840;4.386;2023-12-20T01:11:36;7.20;99.90
39677;DHT22;27789;50.840;4.386;2023-12-20T01:14:01;7.20;99.90
39677;DHT22;27789;50.840;4.386;2023-12-20T01:16:27;7.20;99.90
39677;DHT22;27789;50.840;4.386;2023-12-20T01:18:52;7.20;99.90
39677;DHT22;27789;50.840;4.386;2023-12-20T01:21:18;7.10;99.90
39677;DHT22;27789;50.840;4.386;2023-12-20T01:23:43;7.10;99.90
39677;DHT22;27789;50.840;4.386;2023-12-20T01:26:08;7.10;99.90
39677;DHT22;27789;50.840;4.386;2023-12-20T01:28:34;7.20;99.90
39677;DHT22;27789;50.840;4.386;2023-12-20T01:30:59;7.10;99.90
39677;DHT22;27789;50.840;4.386;2023-12-20T01:33:25;7.10;99.90
39677;DHT22;27789;50.840;4.386;2023-12-20T01:35:50;7.10;99.90
39677;DHT22;27789;50.840;4.386;2023-12-20T01:38:16;7.10;99.90
39677;DHT22;27789;50.840;4.386;2023-12-20T01:40:44;7.00;99.90
39677;DHT22;27789;50.840;4.386;2023-12-20T01:43:09;7.10;99.90
39677;DHT22;27789;50.840;4.386;2023-12-20T01:45:36;7.10;99.90
39677;DHT22;27789;50.840;4.386;2023-12-20T01:48:02;7.00;99.90
39677;DHT22;27789;50.840;4.386;2023-12-20T01:50:29;7.00;99.90
39677;DHT22;27789;50.840;4.386;2023-12-20T01:52:55;7.00;99.90
39677;DHT22;27789;50.840;4.386;2023-12-20T01:55:25;7.00;99.90
39677;DHT22;27789;50.840;4.386;2023-12-20T01:57:50;7.00;99.90
39677;DHT22;27789;50.840;4.386;2023-12-20T02:00:16;7.00;99.90
39677;DHT22;27789;50.840;4.386;2023-12-20T02:02:43;7.00;99.90
39677;DHT22;27789;50.840;4.386;2023-12-20T02:05:10;7.00;99.90
39677;DHT22;27789;50.840;4.386;2023-12-20T02:07:36;7.10;99.90
39677;DHT22;27789;50.840;4.386;2023-12-20T02:10:01;7.10;99.90
39677;DHT22;27789;50.840;4.386;2023-12-20T02:12:27;7.10;99.90
39677;DHT22;27789;50.840;4.386;2023-12-20T02:14:52;7.00;99.90
39677;DHT22;27789;50.840;4.386;2023-12-20T02:17:19;7.00;99.90
39677;DHT22;27789;50.840;4.386;2023-12-20T02:19:44;6.90;99.90
39677;DHT22;27789;50.840;4.386;2023-12-20T02:22:10;6.90;99.90
39677;DHT22;27789;50.840;4.386;2023-12-20T02:24:36;6.90;99.90
39677;DHT22;27789;50.840;4.386;2023-12-20T02:27:02;6.90;99.90
39677;DHT22;27789;50.840;4.386;2023-12-20T02:29:28;6.90;99.90
39677;DHT22;27789;50.840;4.386;2023-12-20T02:31:53;6.90;99.90
39677;DHT22;27789;50.840;4.386;2023-12-20T02:34:19;6.80;99.90
39677;DHT22;27789;50.840;4.386;2023-12-20T02:36:44;6.80;99.90
39677;DHT22;27789;50.840;4.386;2023-12-20T02:39:09;6.80;99.90
39677;DHT22;27789;50.840;4.386;2023-12-20T02:41:35;6.80;99.90
39677;DHT22;27789;50.840;4.386;2023-12-20T02:44:01;6.80;99.90
39677;DHT22;27789;50.840;4.386;2023-12-20T02:46:26;6.70;99.90
39677;DHT22;27789;50.840;4.386;2023-12-20T02:48:52;6.70;99.90
39677;DHT22;27789;50.840;4.386;2023-12-20T02:51:17;6.80;99.90
39677;DHT22;27789;50.840;4.386;2023-12-20T02:53:43;6.80;99.90
39677;DHT22;27789;50.840;4.386;2023-12-20T02:56:08;6.80;99.90
39677;DHT22;27789;50.840;4.386;2023-12-20T02:58:34;6.80;99.90
39677;DHT22;27789;50.840;4.386;2023-12-20T03:00:59;6.80;99.90
39677;DHT22;27789;50.840;4.386;2023-12-20T03:03:25;6.80;99.90
39677;DHT22;27789;50.840;4.386;2023-12-20T03:05:50;6.80;99.90
39677;DHT22;27789;50.840;4.386;2023-12-20T03:08:15;6.80;99.90
39677;DHT22;27789;50.840;4.386;2023-12-20T03:10:41;6.80;99.90
39677;DHT22;27789;50.840;4.386;2023-12-20T03:13:06;6.90;99.90
39677;DHT22;27789;50.840;4.386;2023-12-20T03:15:32;6.90;99.90
39677;DHT22;27789;50.840;4.386;2023-12-20T03:17:57;7.00;99.90
39677;DHT22;27789;50.840;4.386;2023-12-20T03:20:24;7.00;99.90
39677;DHT22;27789;50.840;4.386;2023-12-20T03:22:51;7.00;99.90
39677;DHT22;27789;50.840;4.386;2023-12-20T03:25:16;7.10;99.90
39677;DHT22;27789;50.840;4.386;2023-12-20T03:27:42;7.00;99.90
39677;DHT22;27789;50.840;4.386;2023-12-20T03:30:08;7.10;99.90
39677;DHT22;27789;50.840;4.386;2023-12-20T03:32:33;7.10;99.90
39677;DHT22;27789;50.840;4.386;2023-12-20T03:34:58;7.10;99.90
39677;DHT22;27789;50.840;4.386;2023-12-20T03:37:24;7.00;99.90
39677;DHT22;27789;50.840;4.386;2023-12-20T03:39:50;7.10;99.90
39677;DHT22;27789;50.840;4.386;2023-12-20T03:42:15;7.10;99.90
39677;DHT22;27789;50.840;4.386;2023-12-20T03:44:40;7.10;99.90
39677;DHT22;27789;50.840;4.386;2023-12-20T03:47:06;7.10;99.90
39677;DHT22;27789;50.840;4.386;2023-12-20T03:49:32;7.10;99.90
39677;DHT22;27789;50.840;4.386;2023-12-20T03:51:57;7.00;99.90
39677;DHT22;27789;50.840;4.386;2023-12-20T03:54:22;7.00;99.90
39677;DHT22;27789;50.840;4.386;2023-12-20T03:56:48;7.00;99.90
39677;DHT22;27789;50.840;4.386;2023-12-20T03:59:13;6.90;99.90
39677;DHT22;27789;50.840;4.386;2023-12-20T04:01:42;7.00;99.90
39677;DHT22;27789;50.840;4.386;2023-12-20T04:04:08;7.00;99.90
39677;DHT22;27789;50.840;4.386;2023-12-20T04:06:33;7.00;99.90
39677;DHT22;27789;50.840;4.386;2023-12-20T04:08:59;7.00;99.90
39677;DHT22;27789;50.840;4.386;2023-12-20T04:11:24;7.10;99.90
39677;DHT22;27789;50.840;4.386;2023-12-20T04:13:49;7.10;99.90
39677;DHT22;27789;50.840;4.386;2023-12-20T04:16:15;7.10;99.90
39677;DHT22;27789;50.840;4.386;2023-12-20T04:18:40;7.10;99.90
39677;DHT22;27789;50.840;4.386;2023-12-20T04:21:06;7.10;99.90
39677;DHT22;27789;50.840;4.386;2023-12-20T04:23:32;7.00;99.90
39677;DHT22;27789;50.840;4.386;2023-12-20T04:25:57;7.00;99.90
39677;DHT22;27789;50.840;4.386;2023-12-20T04:28:23;7.00;99.90
39677;DHT22;27789;50.840;4.386;2023-12-20T04:30:48;7.00;99.90
39677;DHT22;27789;50.840;4.386;2023-12-20T04:33:14;7.00;99.90
39677;DHT22;27789;50.840;4.386;2023-12-20T04:35:39;7.00;99.90
39677;DHT22;27789;50.840;4.386;2023-12-20T04:38:06;7.00;99.90
39677;DHT22;27789;50.840;4.386;2023-12-20T04:40:31;7.00;99.90
39677;DHT22;27789;50.840;4.386;2023-12-20T04:42:57;7.00;99.90
39677;DHT22;27789;50.840;4.386;2023-12-20T04:45:22;7.00;99.90
39677;DHT22;27789;50.840;4.386;2023-12-20T04:47:50;6.90;99.90
39677;DHT22;27789;50.840;4.386;2023-12-20T04:50:15;6.90;99.90
39677;DHT22;27789;50.840;4.386;2023-12-20T04:52:41;6.90;99.90
39677;DHT22;27789;50.840;4.386;2023-12-20T04:55:07;6.90;99.90
39677;DHT22;27789;50.840;4.386;2023-12-20T04:57:34;6.90;99.90
39677;DHT22;27789;50.840;4.386;2023-12-20T04:59:59;6.90;99.90
39677;DHT22;27789;50.840;4.386;2023-12-20T05:02:25;6.90;99.90
39677;DHT22;27789;50.840;4.386;2023-12-20T05:04:50;6.90;99.90
39677;DHT22;27789;50.840;4.386;2023-12-20T05:07:16;6.90;99.90
39677;DHT22;27789;50.840;4.386;2023-12-20T05:09:41;6.90;99.90
39677;DHT22;27789;50.840;4.386;2023-12-20T05:12:07;7.00;99.90
39677;DHT22;27789;50.840;4.386;2023-12-20T05:14:32;7.00;99.90
39677;DHT22;27789;50.840;4.386;2023-12-20T05:16:58;7.10;99.90
39677;DHT22;27789;50.840;4.386;2023-12-20T05:19:24;7.10;99.90
39677;DHT22;27789;50.840;4.386;2023-12-20T05:21:49;7.00;99.90
39677;DHT22;27789;50.840;4.386;2023-12-20T05:24:15;7.00;99.90
39677;DHT22;27789;50.840;4.386;2023-12-20T05:26:40;7.00;99.90
39677;DHT22;27789;50.840;4.386;2023-12-20T05:29:06;6.90;99.90
39677;DHT22;27789;50.840;4.386;2023-12-20T05:31:31;6.80;99.90
39677;DHT22;27789;50.840;4.386;2023-12-20T05:33:57;6.80;99.90
39677;DHT22;27789;50.840;4.386;2023-12-20T05:36:22;6.70;99.90
39677;DHT22;27789;50.840;4.386;2023-12-20T05:38:48;6.70;99.90
39677;DHT22;27789;50.840;4.386;2023-12-20T05:41:13;6.70;99.90
39677;DHT22;27789;50.840;4.386;2023-12-20T05:43:39;6.70;99.90
39677;DHT22;27789;50.840;4.386;2023-12-20T05:46:04;6.60;99.90
39677;DHT22;27789;50.840;4.386;2023-12-20T05:48:29;6.60;99.90
39677;DHT22;27789;50.840;4.386;2023-12-20T05:50:55;6.50;99.90
39677;DHT22;27789;50.840;4.386;2023-12-20T05:53:20;6.40;99.90
39677;DHT22;27789;50.840;4.386;2023-12-20T05:55:46;6.40;99.90
39677;DHT22;27789;50.840;4.386;2023-12-20T05:58:11;6.40;99.90
39677;DHT22;27789;50.840;4.386;2023-12-20T06:00:37;6.40;99.90
39677;DHT22;27789;50.840;4.386;2023-12-20T06:03:03;6.40;99.90
39677;DHT22;27789;50.840;4.386;2023-12-20T06:05:30;6.40;99.90
39677;DHT22;27789;50.840;4.386;2023-12-20T06:07:55;6.40;99.90
39677;DHT22;27789;50.840;4.386;2023-12-20T06:10:26;6.40;99.90
39677;DHT22;27789;50.840;4.386;2023-12-20T06:12:52;6.40;99.90
39677;DHT22;27789;50.840;4.386;2023-12-20T06:15:17;6.50;99.90
39677;DHT22;27789;50.840;4.386;2023-12-20T06:17:43;6.50;99.90
39677;DHT22;27789;50.840;4.386;2023-12-20T06:20:08;6.50;99.90
39677;DHT22;27789;50.840;4.386;2023-12-20T06:22:34;6.50;99.90
39677;DHT22;27789;50.840;4.386;2023-12-20T06:25:00;6.50;99.90
39677;DHT22;27789;50.840;4.386;2023-12-20T06:27:25;6.60;99.90
39677;DHT22;27789;50.840;4.386;2023-12-20T06:29:51;6.60;99.90
39677;DHT22;27789;50.840;4.386;2023-12-20T06:32:16;6.60;99.90
39677;DHT22;27789;50.840;4.386;2023-12-20T06:34:41;6.60;99.90
39677;DHT22;27789;50.840;4.386;2023-12-20T06:37:07;6.60;99.90
39677;DHT22;27789;50.840;4.386;2023-12-20T06:39:32;6.60;99.90
39677;DHT22;27789;50.840;4.386;2023-12-20T06:41:59;6.60;99.90
39677;DHT22;27789;50.840;4.386;2023-12-20T06:44:25;6.50;99.90
39677;DHT22;27789;50.840;4.386;2023-12-20T06:46:50;6.50;99.90
39677;DHT22;27789;50.840;4.386;2023-12-20T06:49:16;6.50;99.90
39677;DHT22;27789;50.840;4.386;2023-12-20T06:51:41;6.50;99.90
39677;DHT22;27789;50.840;4.386;2023-12-20T06:54:06;6.50;99.90
39677;DHT22;27789;50.840;4.386;2023-12-20T06:56:32;6.40;99.90
39677;DHT22;27789;50.840;4.386;2023-12-20T06:58:57;6.30;99.90
39677;DHT22;27789;50.840;4.386;2023-12-20T07:01:23;6.30;99.90
39677;DHT22;27789;50.840;4.386;2023-12-20T07:03:48;6.30;99.90
39677;DHT22;27789;50.840;4.386;2023-12-20T07:06:14;6.20;99.90
39677;DHT22;27789;50.840;4.386;2023-12-20T07:08:41;6.20;99.90
39677;DHT22;27789;50.840;4.386;2023-12-20T07:11:07;6.20;99.90
39677;DHT22;27789;50.840;4.386;2023-12-20T07:13:32;6.20;99.90
39677;DHT22;27789;50.840;4.386;2023-12-20T07:15:58;6.20;99.90
39677;DHT22;27789;50.840;4.386;2023-12-20T07:18:23;6.10;99.90
39677;DHT22;27789;50.840;4.386;2023-12-20T07:20:49;6.20;99.90
39677;DHT22;27789;50.840;4.386;2023-12-20T07:23:14;6.20;99.90
39677;DHT22;27789;50.840;4.386;2023-12-20T07:25:40;6.30;99.90
39677;DHT22;27789;50.840;4.386;2023-12-20T07:28:05;6.30;99.90
39677;DHT22;27789;50.840;4.386;2023-12-20T07:30:31;6.20;99.90
39677;DHT22;27789;50.840;4.386;2023-12-20T07:32:56;6.20;99.90
39677;DHT22;27789;50.840;4.386;2023-12-20T07:35:23;6.20;99.90
39677;DHT22;27789;50.840;4.386;2023-12-20T07:37:48;6.10;99.90
39677;DHT22;27789;50.840;4.386;2023-12-20T07:40:14;6.10;99.90
39677;DHT22;27789;50.840;4.386;2023-12-20T07:42:42;6.20;99.90
39677;DHT22;27789;50.840;4.386;2023-12-20T07:45:07;6.20;99.90
39677;DHT22;27789;50.840;4.386;2023-12-20T07:47:35;6.20;99.90
39677;DHT22;27789;50.840;4.386;2023-12-20T07:50:00;6.20;99.90
39677;DHT22;27789;50.840;4.386;2023-12-20T07:52:26;6.20;99.90
39677;DHT22;27789;50.840;4.386;2023-12-20T07:54:51;6.20;99.90
39677;DHT22;27789;50.840;4.386;2023-12-20T07:57:17;6.20;99.90
39677;DHT22;27789;50.840;4.386;2023-12-20T07:59:42;6.10;99.90
39677;DHT22;27789;50.840;4.386;2023-12-20T08:02:09;6.10;99.90
39677;DHT22;27789;50.840;4.386;2023-12-20T08:04:35;6.20;99.90
39677;DHT22;27789;50.840;4.386;2023-12-20T08:07:00;6.20;99.90
39677;DHT22;27789;50.840;4.386;2023-12-20T08:09:26;6.20;99.90
39677;DHT22;27789;50.840;4.386;2023-12-20T08:11:51;6.20;99.90
39677;DHT22;27789;50.840;4.386;2023-12-20T08:14:16;6.20;99.90
39677;DHT22;27789;50.840;4.386;2023-12-20T08:16:42;6.20;99.90
39677;DHT22;27789;50.840;4.386;2023-12-20T08:19:07;6.20;99.90
39677;DHT22;27789;50.840;4.386;2023-12-20T08:21:33;6.30;99.90
39677;DHT22;27789;50.840;4.386;2023-12-20T08:23:59;6.30;99.90
39677;DHT22;27789;50.840;4.386;2023-12-20T08:26:25;6.30;99.90
39677;DHT22;27789;50.840;4.386;2023-12-20T08:28:51;6.30;99.90
39677;DHT22;27789;50.840;4.386;2023-12-20T08:31:17;6.30;99.90
39677;DHT22;27789;50.840;4.386;2023-12-20T08:33:46;6.30;99.90
39677;DHT22;27789;50.840;4.386;2023-12-20T08:36:12;6.40;99.90
39677;DHT22;27789;50.840;4.386;2023-12-20T08:38:37;6.40;99.90
39677;DHT22;27789;50.840;4.386;2023-12-20T08:41:03;6.40;99.90
39677;DHT22;27789;50.840;4.386;2023-12-20T08:43:30;6.50;99.90
39677;DHT22;27789;50.840;4.386;2023-12-20T08:45:56;6.50;99.90
39677;DHT22;27789;50.840;4.386;2023-12-20T08:48:21;6.50;99.90
39677;DHT22;27789;50.840;4.386;2023-12-20T08:50:47;6.50;99.90
39677;DHT22;27789;50.840;4.386;2023-12-20T08:53:14;6.40;99.90
39677;DHT22;27789;50.840;4.386;2023-12-20T08:55:41;6.40;99.90
39677;DHT22;27789;50.840;4.386;2023-12-20T08:58:06;6.40;99.90
39677;DHT22;27789;50.840;4.386;2023-12-20T09:00:33;6.50;99.90
39677;DHT22;27789;50.840;4.386;2023-12-20T09:02:59;6.50;99.90
39677;DHT22;27789;50.840;4.386;2023-12-20T09:05:24;6.50;99.90
39677;DHT22;27789;50.840;4.386;2023-12-20T09:07:50;5.60;99.90
39677;DHT22;27789;50.840;4.386;2023-12-20T09:10:15;6.50;99.90
39677;DHT22;27789;50.840;4.386;2023-12-20T09:12:41;6.50;99.90
39677;DHT22;27789;50.840;4.386;2023-12-20T09:15:08;6.60;99.90
39677;DHT22;27789;50.840;4.386;2023-12-20T09:17:33;6.60;99.90
39677;DHT22;27789;50.840;4.386;2023-12-20T09:19:59;6.70;99.90
39677;DHT22;27789;50.840;4.386;2023-12-20T09:22:25;6.70;99.90
39677;DHT22;27789;50.840;4.386;2023-12-20T09:24:50;6.80;99.90
39677;DHT22;27789;50.840;4.386;2023-12-20T09:27:16;6.80;99.90
39677;DHT22;27789;50.840;4.386;2023-12-20T09:29:41;6.90;99.90
39677;DHT22;27789;50.840;4.386;2023-12-20T09:32:07;6.90;99.90
39677;DHT22;27789;50.840;4.386;2023-12-20T09:34:33;6.90;99.90
39677;DHT22;27789;50.840;4.386;2023-12-20T09:36:58;7.00;99.90
39677;DHT22;27789;50.840;4.386;2023-12-20T09:39:24;7.10;99.90
39677;DHT22;27789;50.840;4.386;2023-12-20T09:42:02;7.30;99.90
39677;DHT22;27789;50.840;4.386;2023-12-20T09:44:28;7.40;99.90
39677;DHT22;27789;50.840;4.386;2023-12-20T09:46:54;7.60;99.90
39677;DHT22;27789;50.840;4.386;2023-12-20T09:49:20;7.70;99.90
39677;DHT22;27789;50.840;4.386;2023-12-20T09:51:46;7.80;99.90
39677;DHT22;27789;50.840;4.386;2023-12-20T09:54:15;7.90;99.90
39677;DHT22;27789;50.840;4.386;2023-12-20T09:56:41;8.00;99.90
39677;DHT22;27789;50.840;4.386;2023-12-20T09:59:06;8.20;99.90
39677;DHT22;27789;50.840;4.386;2023-12-20T10:01:32;8.20;99.90
39677;DHT22;27789;50.840;4.386;2023-12-20T10:03:58;8.10;99.90
39677;DHT22;27789;50.840;4.386;2023-12-20T10:06:25;8.00;99.90
39677;DHT22;27789;50.840;4.386;2023-12-20T10:08:50;8.00;99.90
39677;DHT22;27789;50.840;4.386;2023-12-20T10:11:16;7.90;99.90
39677;DHT22;27789;50.840;4.386;2023-12-20T10:13:42;7.90;99.90
39677;DHT22;27789;50.840;4.386;2023-12-20T10:16:07;7.90;99.90
39677;DHT22;27789;50.840;4.386;2023-12-20T10:18:33;7.80;99.90
39677;DHT22;27789;50.840;4.386;2023-12-20T10:20:59;7.90;99.90
39677;DHT22;27789;50.840;4.386;2023-12-20T10:23:25;8.10;99.90
39677;DHT22;27789;50.840;4.386;2023-12-20T10:25:59;8.20;99.90
39677;DHT22;27789;50.840;4.386;2023-12-20T10:28:25;8.30;99.90
39677;DHT22;27789;50.840;4.386;2023-12-20T10:30:54;8.30;99.90
39677;DHT22;27789;50.840;4.386;2023-12-20T10:33:28;8.20;99.90
39677;DHT22;27789;50.840;4.386;2023-12-20T10:35:54;8.30;99.90
39677;DHT22;27789;50.840;4.386;2023-12-20T10:38:20;8.30;99.90
39677;DHT22;27789;50.840;4.386;2023-12-20T10:40:45;8.30;99.90
39677;DHT22;27789;50.840;4.386;2023-12-20T10:43:11;8.30;99.90
39677;DHT22;27789;50.840;4.386;2023-12-20T10:45:37;8.40;99.90
39677;DHT22;27789;50.840;4.386;2023-12-20T10:48:02;8.40;99.90
39677;DHT22;27789;50.840;4.386;2023-12-20T10:50:28;8.40;99.90
39677;DHT22;27789;50.840;4.386;2023-12-20T10:52:55;8.30;99.90
39677;DHT22;27789;50.840;4.386;2023-12-20T10:55:24;8.40;99.90
39677;DHT22;27789;50.840;4.386;2023-12-20T10:58:06;8.50;99.90
39677;DHT22;27789;50.840;4.386;2023-12-20T11:00:32;8.50;99.90
39677;DHT22;27789;50.840;4.386;2023-12-20T11:03:00;8.50;99.90
39677;DHT22;27789;50.840;4.386;2023-12-20T11:05:33;8.60;99.90
39677;DHT22;27789;50.840;4.386;2023-12-20T11:11:00;8.60;99.90
39677;DHT22;27789;50.840;4.386;2023-12-20T11:16:33;8.60;99.90
39677;DHT22;27789;50.840;4.386;2023-12-20T11:19:04;8.70;99.90
39677;DHT22;27789;50.840;4.386;2023-12-20T11:21:29;8.60;99.90
39677;DHT22;27789;50.840;4.386;2023-12-20T11:23:55;8.60;99.90
39677;DHT22;27789;50.840;4.386;2023-12-20T11:26:27;8.60;99.90
39677;DHT22;27789;50.840;4.386;2023-12-20T11:28:54;8.70;99.90
39677;DHT22;27789;50.840;4.386;2023-12-20T11:31:19;8.70;99.90
39677;DHT22;27789;50.840;4.386;2023-12-20T11:33:45;8.70;99.90
39677;DHT22;27789;50.840;4.386;2023-12-20T11:36:14;8.80;99.90
39677;DHT22;27789;50.840;4.386;2023-12-20T11:38:49;8.70;99.90
39677;DHT22;27789;50.840;4.386;2023-12-20T11:41:18;8.70;99.90
39677;DHT22;27789;50.840;4.386;2023-12-20T11:43:44;8.60;99.90
39677;DHT22;27789;50.840;4.386;2023-12-20T11:46:09;8.60;99.90
39677;DHT22;27789;50.840;4.386;2023-12-20T11:48:37;8.60;99.90
39677;DHT22;27789;50.840;4.386;2023-12-20T11:51:02;8.60;99.90
39677;DHT22;27789;50.840;4.386;2023-12-20T11:53:29;8.70;99.90
39677;DHT22;27789;50.840;4.386;2023-12-20T11:55:56;8.70;99.90
39677;DHT22;27789;50.840;4.386;2023-12-20T11:58:21;8.70;99.90
39677;DHT22;27789;50.840;4.386;2023-12-20T12:00:48;8.70;99.90
39677;DHT22;27789;50.840;4.386;2023-12-20T12:03:14;8.70;99.90
39677;DHT22;27789;50.840;4.386;2023-12-20T12:05:40;8.80;99.90
39677;DHT22;27789;50.840;4.386;2023-12-20T12:08:05;8.80;99.90
39677;DHT22;27789;50.840;4.386;2023-12-20T12:10:31;8.80;99.90
39677;DHT22;27789;50.840;4.386;2023-12-20T12:12:56;8.80;99.90
39677;DHT22;27789;50.840;4.386;2023-12-20T12:15:22;8.90;99.90
39677;DHT22;27789;50.840;4.386;2023-12-20T12:17:54;8.90;99.90
39677;DHT22;27789;50.840;4.386;2023-12-20T12:20:20;9.00;99.90
39677;DHT22;27789;50.840;4.386;2023-12-20T12:22:45;9.00;99.90
39677;DHT22;27789;50.840;4.386;2023-12-20T12:25:15;9.10;99.90
39677;DHT22;27789;50.840;4.386;2023-12-20T12:27:41;9.10;99.90
39677;DHT22;27789;50.840;4.386;2023-12-20T12:30:07;9.10;99.90
39677;DHT22;27789;50.840;4.386;2023-12-20T12:32:33;9.10;99.90
39677;DHT22;27789;50.840;4.386;2023-12-20T12:34:59;9.10;99.90
39677;DHT22;27789;50.840;4.386;2023-12-20T12:37:24;9.10;99.90
39677;DHT22;27789;50.840;4.386;2023-12-20T12:39:53;9.10;99.90
39677;DHT22;27789;50.840;4.386;2023-12-20T12:42:18;9.10;99.90
39677;DHT22;27789;50.840;4.386;2023-12-20T12:44:44;9.10;99.90
39677;DHT22;27789;50.840;4.386;2023-12-20T12:47:09;9.20;99.90
39677;DHT22;27789;50.840;4.386;2023-12-20T12:49:35;9.20;99.90
39677;DHT22;27789;50.840;4.386;2023-12-20T12:52:00;9.20;99.90
39677;DHT22;27789;50.840;4.386;2023-12-20T12:54:26;9.10;99.90
39677;DHT22;27789;50.840;4.386;2023-12-20T12:56:51;9.10;99.90
39677;DHT22;27789;50.840;4.386;2023-12-20T12:59:18;9.20;99.90
39677;DHT22;27789;50.840;4.386;2023-12-20T13:01:43;9.20;99.90
39677;DHT22;27789;50.840;4.386;2023-12-20T13:04:09;9.20;99.90
39677;DHT22;27789;50.840;4.386;2023-12-20T13:06:39;9.20;99.90
39677;DHT22;27789;50.840;4.386;2023-12-20T13:09:06;9.20;99.90
39677;DHT22;27789;50.840;4.386;2023-12-20T13:11:31;9.20;99.90
39677;DHT22;27789;50.840;4.386;2023-12-20T13:13:57;9.10;99.90
39677;DHT22;27789;50.840;4.386;2023-12-20T13:16:25;9.10;99.90
39677;DHT22;27789;50.840;4.386;2023-12-20T13:18:51;9.10;99.90
39677;DHT22;27789;50.840;4.386;2023-12-20T13:21:16;9.10;99.90
39677;DHT22;27789;50.840;4.386;2023-12-20T13:23:42;9.10;99.90
39677;DHT22;27789;50.840;4.386;2023-12-20T13:26:07;9.10;99.90
39677;DHT22;27789;50.840;4.386;2023-12-20T13:28:33;9.20;99.90
39677;DHT22;27789;50.840;4.386;2023-12-20T13:30:58;9.20;99.90
39677;DHT22;27789;50.840;4.386;2023-12-20T13:33:25;9.30;99.90
39677;DHT22;27789;50.840;4.386;2023-12-20T13:35:50;9.40;99.90
39677;DHT22;27789;50.840;4.386;2023-12-20T13:38:16;9.40;99.90
39677;DHT22;27789;50.840;4.386;2023-12-20T13:40:41;9.50;99.90
39677;DHT22;27789;50.840;4.386;2023-12-20T13:43:07;9.50;99.90
39677;DHT22;27789;50.840;4.386;2023-12-20T13:45:32;9.50;99.90
39677;DHT22;27789;50.840;4.386;2023-12-20T13:47:58;9.50;99.90
39677;DHT22;27789;50.840;4.386;2023-12-20T13:50:24;9.50;99.90
39677;DHT22;27789;50.840;4.386;2023-12-20T13:52:49;9.50;99.90
39677;DHT22;27789;50.840;4.386;2023-12-20T13:55:15;9.50;99.90
39677;DHT22;27789;50.840;4.386;2023-12-20T13:57:40;9.60;99.90
39677;DHT22;27789;50.840;4.386;2023-12-20T14:00:06;9.60;99.90
39677;DHT22;27789;50.840;4.386;2023-12-20T14:02:38;9.60;99.90
39677;DHT22;27789;50.840;4.386;2023-12-20T14:05:03;9.60;99.90
39677;DHT22;27789;50.840;4.386;2023-12-20T14:07:29;9.60;99.90
39677;DHT22;27789;50.840;4.386;2023-12-20T14:09:54;9.60;99.90
39677;DHT22;27789;50.840;4.386;2023-12-20T14:12:20;9.60;99.90
39677;DHT22;27789;50.840;4.386;2023-12-20T14:14:45;9.60;99.90
39677;DHT22;27789;50.840;4.386;2023-12-20T14:17:11;9.60;99.90
39677;DHT22;27789;50.840;4.386;2023-12-20T14:19:36;9.70;99.90
39677;DHT22;27789;50.840;4.386;2023-12-20T14:22:02;9.70;99.90
39677;DHT22;27789;50.840;4.386;2023-12-20T14:24:28;9.70;99.90
39677;DHT22;27789;50.840;4.386;2023-12-20T14:26:54;9.70;99.90
39677;DHT22;27789;50.840;4.386;2023-12-20T14:29:19;9.70;99.90
39677;DHT22;27789;50.840;4.386;2023-12-20T14:31:45;9.70;99.90
39677;DHT22;27789;50.840;4.386;2023-12-20T14:34:10;9.70;99.90
39677;DHT22;27789;50.840;4.386;2023-12-20T14:36:36;10.40;99.90
39677;DHT22;27789;50.840;4.386;2023-12-20T14:39:02;9.80;99.90
39677;DHT22;27789;50.840;4.386;2023-12-20T14:41:28;9.80;99.90
39677;DHT22;27789;50.840;4.386;2023-12-20T14:43:54;9.80;99.90
39677;DHT22;27789;50.840;4.386;2023-12-20T14:46:19;9.80;99.90
39677;DHT22;27789;50.840;4.386;2023-12-20T14:48:45;9.70;99.90
39677;DHT22;27789;50.840;4.386;2023-12-20T14:51:10;9.80;99.90
39677;DHT22;27789;50.840;4.386;2023-12-20T14:53:37;9.80;99.90
39677;DHT22;27789;50.840;4.386;2023-12-20T14:56:03;9.80;99.90
39677;DHT22;27789;50.840;4.386;2023-12-20T14:58:29;9.80;99.90
39677;DHT22;27789;50.840;4.386;2023-12-20T15:00:55;9.80;99.90
39677;DHT22;27789;50.840;4.386;2023-12-20T15:03:21;9.80;99.90
39677;DHT22;27789;50.840;4.386;2023-12-20T15:05:47;9.80;99.90
39677;DHT22;27789;50.840;4.386;2023-12-20T15:08:13;9.90;99.90
39677;DHT22;27789;50.840;4.386;2023-12-20T15:10:39;9.90;99.90
39677;DHT22;27789;50.840;4.386;2023-12-20T15:13:04;9.90;99.90
39677;DHT22;27789;50.840;4.386;2023-12-20T15:15:30;9.90;99.90
39677;DHT22;27789;50.840;4.386;2023-12-20T15:17:57;9.90;99.90
39677;DHT22;27789;50.840;4.386;2023-12-20T15:20:23;9.90;99.90
39677;DHT22;27789;50.840;4.386;2023-12-20T15:22:48;9.90;99.90
39677;DHT22;27789;50.840;4.386;2023-12-20T15:25:14;9.90;99.90
39677;DHT22;27789;50.840;4.386;2023-12-20T15:27:46;9.90;99.90
39677;DHT22;27789;50.840;4.386;2023-12-20T15:30:14;9.90;99.90
39677;DHT22;27789;50.840;4.386;2023-12-20T15:32:39;9.90;99.90
39677;DHT22;27789;50.840;4.386;2023-12-20T15:35:05;9.90;99.90
39677;DHT22;27789;50.840;4.386;2023-12-20T15:37:31;9.90;99.90
39677;DHT22;27789;50.840;4.386;2023-12-20T15:39:56;9.90;99.90
39677;DHT22;27789;50.840;4.386;2023-12-20T15:42:22;9.90;99.90